createdAt,value
2022-09-06T00:00:18.723Z,100.00
2022-09-06T00:02:45.384Z,100.00
2022-09-06T00:05:12.917Z,100.00
2022-09-06T00:07:39.450Z,100.00
2022-09-06T00:10:06.575Z,100.00
2022-09-06T00:12:33.746Z,100.00
2022-09-06T00:15:00.359Z,100.00
2022-09-06T00:17:26.950Z,100.00
2022-09-06T00:19:53.791Z,100.00
2022-09-06T00:22:20.272Z,100.00
2022-09-06T00:24:46.753Z,100.00
2022-09-06T00:27:13.255Z,100.00
2022-09-06T00:29:39.776Z,100.00
2022-09-06T00:32:06.387Z,100.00
2022-09-06T00:34:32.901Z,100.00
2022-09-06T00:36:59.484Z,100.00
2022-09-06T00:39:26.006Z,100.00
2022-09-06T00:41:52.689Z,100.00
2022-09-06T00:44:19.273Z,100.00
2022-09-06T00:46:47.774Z,100.00
2022-09-06T00:49:24.442Z,100.00
2022-09-06T00:51:52.543Z,100.00
2022-09-06T00:54:19.221Z,100.00
2022-09-06T00:56:46.351Z,100.00
2022-09-06T00:59:13.191Z,100.00
2022-09-06T01:01:39.831Z,100.00
2022-09-06T01:04:06.635Z,100.00
2022-09-06T01:06:44.316Z,100.00
2022-09-06T01:09:25.206Z,100.00
2022-09-06T01:12:00.888Z,100.00
2022-09-06T01:14:27.359Z,100.00
2022-09-06T01:17:12.358Z,100.00
2022-09-06T01:19:41.712Z,100.00
2022-09-06T01:22:20.464Z,100.00
2022-09-06T01:25:05.416Z,100.00
2022-09-06T01:27:37.875Z,100.00
2022-09-06T01:30:05.291Z,100.00
2022-09-06T01:32:52.884Z,100.00
2022-09-06T01:35:23.045Z,100.00
2022-09-06T01:37:49.647Z,100.00
2022-09-06T01:40:16.300Z,100.00
2022-09-06T01:42:44.926Z,100.00
2022-09-06T01:45:14.902Z,100.00
2022-09-06T01:48:00.205Z,100.00
2022-09-06T01:50:49.780Z,100.00
2022-09-06T01:53:16.219Z,100.00
2022-09-06T01:55:54.294Z,100.00
2022-09-06T01:58:39.052Z,100.00
2022-09-06T02:01:08.271Z,100.00
2022-09-06T02:03:50.140Z,100.00
2022-09-06T02:06:23.314Z,100.00
2022-09-06T02:08:53.291Z,100.00
2022-09-06T02:11:19.971Z,100.00
2022-09-06T02:13:51.729Z,100.00
2022-09-06T02:16:20.813Z,100.00
2022-09-06T02:19:07.643Z,100.00
2022-09-06T02:21:38.272Z,100.00
2022-09-06T02:24:07.832Z,100.00
2022-09-06T02:26:40.202Z,100.00
2022-09-06T02:29:06.886Z,100.00
2022-09-06T02:31:43.566Z,100.00
2022-09-06T02:34:13.794Z,100.00
2022-09-06T02:36:40.406Z,100.00
2022-09-06T02:39:06.967Z,100.00
2022-09-06T02:41:33.657Z,100.00
2022-09-06T02:44:00.137Z,100.00
2022-09-06T02:46:26.714Z,100.00
2022-09-06T02:48:53.320Z,100.00
2022-09-06T02:51:20.709Z,100.00
2022-09-06T02:53:47.344Z,100.00
2022-09-06T02:56:13.864Z,100.00
2022-09-06T02:58:40.374Z,100.00
2022-09-06T03:01:06.926Z,100.00
2022-09-06T03:03:33.694Z,100.00
2022-09-06T03:06:00.165Z,100.00
2022-09-06T03:08:29.287Z,100.00
2022-09-06T03:10:56.946Z,100.00
2022-09-06T03:13:24.644Z,100.00
2022-09-06T03:15:51.964Z,100.00
2022-09-06T03:18:18.529Z,100.00
2022-09-06T03:20:45.048Z,100.00
2022-09-06T03:23:11.535Z,100.00
2022-09-06T03:25:38.022Z,100.00
2022-09-06T03:28:04.966Z,100.00
2022-09-06T03:30:31.617Z,100.00
2022-09-06T03:33:02.626Z,100.00
2022-09-06T03:35:29.538Z,100.00
2022-09-06T03:37:56.022Z,100.00
2022-09-06T03:40:22.553Z,100.00
2022-09-06T03:42:49.096Z,100.00
2022-09-06T03:45:15.782Z,100.00
2022-09-06T03:47:42.263Z,100.00
2022-09-06T03:50:09.004Z,100.00
2022-09-06T03:52:35.534Z,100.00
2022-09-06T03:55:02.932Z,100.00
2022-09-06T03:57:29.462Z,100.00
2022-09-06T03:59:55.966Z,100.00
2022-09-06T04:02:22.706Z,100.00
2022-09-06T04:04:49.191Z,100.00
2022-09-06T04:07:15.767Z,100.00
2022-09-06T04:09:42.226Z,100.00
2022-09-06T04:12:08.801Z,100.00
2022-09-06T04:14:35.316Z,100.00
2022-09-06T04:17:01.908Z,100.00
2022-09-06T04:19:28.421Z,100.00
2022-09-06T04:21:54.909Z,100.00
2022-09-06T04:24:21.461Z,100.00
2022-09-06T04:26:48.048Z,100.00
2022-09-06T04:29:14.598Z,100.00
2022-09-06T04:31:41.184Z,100.00
2022-09-06T04:34:07.705Z,100.00
2022-09-06T04:36:34.192Z,100.00
2022-09-06T04:39:00.776Z,100.00
2022-09-06T04:41:27.318Z,100.00
2022-09-06T04:43:53.845Z,100.00
2022-09-06T04:46:20.394Z,100.00
2022-09-06T04:48:47.540Z,100.00
2022-09-06T04:51:14.335Z,100.00
2022-09-06T04:53:40.819Z,100.00
2022-09-06T04:56:07.350Z,100.00
2022-09-06T04:58:33.862Z,100.00
2022-09-06T05:01:00.445Z,100.00
2022-09-06T05:03:26.957Z,100.00
2022-09-06T05:05:53.518Z,100.00
2022-09-06T05:08:20.062Z,100.00
2022-09-06T05:10:46.621Z,100.00
2022-09-06T05:13:13.165Z,100.00
2022-09-06T05:15:39.653Z,100.00
2022-09-06T05:18:06.728Z,100.00
2022-09-06T05:20:33.253Z,100.00
2022-09-06T05:22:59.803Z,100.00
2022-09-06T05:25:26.274Z,100.00
2022-09-06T05:27:52.760Z,100.00
2022-09-06T05:30:19.748Z,100.00
2022-09-06T05:32:46.266Z,100.00
2022-09-06T05:35:12.874Z,100.00
2022-09-06T05:37:39.351Z,100.00
2022-09-06T05:40:06.149Z,100.00
2022-09-06T05:42:32.698Z,100.00
2022-09-06T05:44:59.197Z,100.00
2022-09-06T05:47:25.758Z,100.00
2022-09-06T05:49:53.511Z,100.00
2022-09-06T05:52:20.123Z,100.00
2022-09-06T05:54:46.659Z,100.00
2022-09-06T05:57:13.172Z,100.00
2022-09-06T05:59:39.841Z,100.00
2022-09-06T06:02:07.473Z,100.00
2022-09-06T06:04:34.721Z,100.00
2022-09-06T06:07:01.772Z,100.00
2022-09-06T06:09:28.438Z,100.00
2022-09-06T06:11:54.968Z,100.00
2022-09-06T06:14:21.544Z,100.00
2022-09-06T06:16:48.108Z,100.00
2022-09-06T06:19:15.399Z,100.00
2022-09-06T06:21:43.676Z,100.00
2022-09-06T06:24:10.245Z,100.00
2022-09-06T06:26:36.888Z,100.00
2022-09-06T06:29:03.924Z,100.00
2022-09-06T06:31:31.000Z,100.00
2022-09-06T06:33:58.395Z,100.00
2022-09-06T06:36:26.280Z,100.00
2022-09-06T06:38:54.363Z,100.00
2022-09-06T06:41:25.784Z,100.00
2022-09-06T06:43:56.288Z,100.00
2022-09-06T06:46:24.258Z,100.00
2022-09-06T06:48:54.712Z,100.00
2022-09-06T06:51:23.706Z,100.00
2022-09-06T06:53:50.232Z,100.00
2022-09-06T06:56:20.888Z,98.75
2022-09-06T06:58:48.789Z,98.00
2022-09-06T07:01:19.928Z,98.63
2022-09-06T07:03:46.952Z,96.60
2022-09-06T07:06:14.200Z,97.79
2022-09-06T07:08:41.164Z,95.80
2022-09-06T07:11:10.011Z,95.81
2022-09-06T07:13:36.571Z,94.91
2022-09-06T07:16:07.032Z,94.08
2022-09-06T07:18:33.562Z,92.82
2022-09-06T07:26:33.723Z,94.11
2022-09-06T07:29:01.033Z,91.34
2022-09-06T07:34:14.896Z,88.49
2022-09-06T07:36:41.490Z,90.67
2022-09-06T07:39:08.005Z,89.04
2022-09-06T07:41:34.493Z,86.21
2022-09-06T07:44:01.003Z,85.83
2022-09-06T07:46:27.583Z,84.32
2022-09-06T07:48:54.137Z,82.83
2022-09-06T07:51:21.460Z,80.22
2022-09-06T07:53:57.944Z,78.34
2022-09-06T07:56:33.867Z,77.91
2022-09-06T07:59:00.375Z,77.11
2022-09-06T08:01:31.132Z,75.93
2022-09-06T08:03:58.789Z,77.48
2022-09-06T08:06:25.604Z,75.36
2022-09-06T08:08:59.811Z,72.38
2022-09-06T08:11:30.182Z,73.42
2022-09-06T08:13:57.376Z,73.99
2022-09-06T08:16:25.092Z,74.11
2022-09-06T08:18:52.597Z,73.43
2022-09-06T08:21:19.846Z,72.65
2022-09-06T08:23:48.504Z,72.93
2022-09-06T08:26:19.058Z,73.40
2022-09-06T08:28:45.554Z,71.30
2022-09-06T08:31:15.940Z,70.57
2022-09-06T08:33:43.397Z,67.72
2022-09-06T08:36:10.921Z,70.27
2022-09-06T08:38:37.673Z,69.81
2022-09-06T08:41:12.020Z,69.77
2022-09-06T08:43:38.831Z,69.20
2022-09-06T08:46:10.010Z,67.66
2022-09-06T08:48:39.774Z,66.32
2022-09-06T08:51:29.251Z,66.78
2022-09-06T08:53:59.834Z,67.15
2022-09-06T08:56:34.690Z,66.34
2022-09-06T08:59:08.279Z,66.17
2022-09-06T09:01:44.822Z,65.23
2022-09-06T09:04:14.970Z,66.31
2022-09-06T09:06:41.663Z,65.05
2022-09-06T09:09:10.584Z,63.92
2022-09-06T09:11:40.092Z,64.87
2022-09-06T09:14:12.775Z,64.63
2022-09-06T09:16:39.408Z,60.50
2022-09-06T09:19:06.206Z,55.77
2022-09-06T09:21:41.512Z,57.32
2022-09-06T09:24:09.228Z,53.69
2022-09-06T09:26:51.697Z,52.65
2022-09-06T09:29:18.597Z,54.95
2022-09-06T09:31:53.445Z,54.16
2022-09-06T09:34:33.938Z,50.95
2022-09-06T09:40:15.205Z,50.27
2022-09-06T09:42:41.838Z,50.44
2022-09-06T09:45:28.616Z,49.17
2022-09-06T09:47:55.384Z,48.04
2022-09-06T09:50:23.742Z,48.00
2022-09-06T09:52:50.270Z,48.18
2022-09-06T09:55:21.524Z,48.61
2022-09-06T09:57:48.738Z,46.54
2022-09-06T10:00:32.240Z,44.48
2022-09-06T10:02:58.996Z,45.46
2022-09-06T10:05:25.679Z,46.13
2022-09-06T10:07:56.669Z,45.16
2022-09-06T10:10:24.614Z,44.07
2022-09-06T10:13:09.362Z,43.42
2022-09-06T10:15:42.469Z,43.45
2022-09-06T10:18:18.510Z,42.24
2022-09-06T10:20:54.449Z,41.86
2022-09-06T10:26:37.281Z,39.41
2022-09-06T10:29:09.738Z,38.26
2022-09-06T10:31:54.767Z,38.38
2022-09-06T10:34:39.870Z,41.06
2022-09-06T10:37:28.779Z,41.52
2022-09-06T10:40:02.822Z,41.39
2022-09-06T10:42:34.301Z,41.96
2022-09-06T10:45:21.103Z,41.37
2022-09-06T10:47:53.366Z,43.04
2022-09-06T10:50:20.101Z,43.41
2022-09-06T10:52:48.016Z,44.25
2022-09-06T10:55:16.963Z,46.29
2022-09-06T11:00:46.895Z,50.11
2022-09-06T11:06:10.379Z,48.43
2022-09-06T11:08:46.204Z,47.33
2022-09-06T11:11:19.636Z,48.55
2022-09-06T11:13:47.184Z,47.81
2022-09-06T11:16:19.571Z,45.91
2022-09-06T11:18:49.559Z,47.17
2022-09-06T11:21:31.166Z,47.74
2022-09-06T11:24:06.738Z,44.57
2022-09-06T11:26:34.633Z,43.33
2022-09-06T11:29:06.864Z,43.62
2022-09-06T11:34:28.320Z,40.43
2022-09-06T11:36:58.119Z,40.08
2022-09-06T11:42:31.242Z,37.61
2022-09-06T11:45:06.777Z,39.58
2022-09-06T11:47:37.654Z,39.21
2022-09-06T11:50:19.555Z,39.29
2022-09-06T11:52:54.901Z,40.34
2022-09-06T11:55:30.401Z,40.75
2022-09-06T11:57:58.130Z,42.08
2022-09-06T12:00:25.189Z,42.95
2022-09-06T12:02:52.349Z,45.49
2022-09-06T12:05:26.106Z,46.04
2022-09-06T12:08:10.930Z,47.50
2022-09-06T12:10:40.201Z,46.70
2022-09-06T12:13:25.262Z,46.75
2022-09-06T12:15:52.977Z,46.39
2022-09-06T12:18:38.445Z,47.92
2022-09-06T12:21:04.988Z,49.20
2022-09-06T12:23:34.509Z,48.20
2022-09-06T12:26:02.067Z,47.31
2022-09-06T12:28:42.407Z,45.95
2022-09-06T12:31:24.226Z,42.23
2022-09-06T12:33:52.425Z,39.87
2022-09-06T12:36:20.187Z,39.74
2022-09-06T12:38:56.211Z,39.76
2022-09-06T12:41:23.069Z,38.74
2022-09-06T12:43:50.135Z,39.45
2022-09-06T12:46:16.779Z,40.78
2022-09-06T12:48:44.879Z,41.29
2022-09-06T12:51:19.555Z,41.63
2022-09-06T12:53:56.947Z,41.14
2022-09-06T12:56:24.916Z,42.34
2022-09-06T12:58:51.423Z,41.71
2022-09-06T13:01:29.749Z,41.83
2022-09-06T13:04:02.783Z,41.55
2022-09-06T13:06:30.744Z,42.31
2022-09-06T13:08:58.518Z,41.84
2022-09-06T13:11:30.871Z,40.88
2022-09-06T13:13:57.752Z,39.24
2022-09-06T13:16:28.175Z,37.63
2022-09-06T13:18:54.672Z,36.84
2022-09-06T13:21:25.451Z,35.79
2022-09-06T13:23:52.011Z,36.11
2022-09-06T13:26:35.045Z,35.15
2022-09-06T13:29:31.215Z,35.75
2022-09-06T13:31:59.038Z,38.03
2022-09-06T13:34:32.814Z,38.08
2022-09-06T13:37:04.249Z,40.60
2022-09-06T13:39:33.722Z,41.34
2022-09-06T13:42:07.615Z,39.24
2022-09-06T13:44:35.674Z,37.13
2022-09-06T13:47:02.465Z,34.72
2022-09-06T13:49:29.414Z,35.81
2022-09-06T13:51:58.904Z,35.62
2022-09-06T13:54:25.796Z,34.76
2022-09-06T13:56:52.365Z,35.32
2022-09-06T13:59:19.270Z,34.01
2022-09-06T14:01:48.307Z,32.47
2022-09-06T14:04:19.316Z,33.42
2022-09-06T14:06:46.140Z,31.84
2022-09-06T14:09:12.908Z,31.30
2022-09-06T14:11:39.637Z,30.50
2022-09-06T14:14:06.530Z,30.65
2022-09-06T14:16:34.150Z,30.85
2022-09-06T14:19:00.872Z,31.12
2022-09-06T14:21:27.622Z,30.96
2022-09-06T14:23:54.106Z,30.93
2022-09-06T14:26:21.366Z,30.56
2022-09-06T14:28:48.209Z,30.38
2022-09-06T14:31:16.072Z,30.12
2022-09-06T14:33:42.675Z,31.38
2022-09-06T14:36:10.479Z,31.75
2022-09-06T14:38:38.477Z,34.06
2022-09-06T14:41:05.592Z,35.05
2022-09-06T14:43:32.885Z,34.76
2022-09-06T14:46:14.876Z,35.36
2022-09-06T14:48:42.677Z,36.97
2022-09-06T14:51:10.878Z,37.34
2022-09-06T14:53:41.187Z,38.72
2022-09-06T14:56:08.307Z,39.05
2022-09-06T14:58:35.393Z,39.41
2022-09-06T15:01:22.018Z,40.16
2022-09-06T15:03:51.659Z,39.25
2022-09-06T15:06:22.040Z,38.35
2022-09-06T15:08:49.079Z,38.04
2022-09-06T15:11:16.022Z,38.60
2022-09-06T15:13:42.777Z,38.42
2022-09-06T15:16:10.678Z,38.20
2022-09-06T15:18:37.287Z,37.69
2022-09-06T15:21:11.034Z,36.39
2022-09-06T15:23:37.709Z,36.59
2022-09-06T15:26:06.549Z,36.44
2022-09-06T15:28:34.562Z,36.32
2022-09-06T15:31:01.132Z,36.32
2022-09-06T15:33:30.991Z,36.88
2022-09-06T15:35:57.986Z,36.80
2022-09-06T15:38:24.587Z,35.86
2022-09-06T15:40:51.118Z,35.82
2022-09-06T15:43:17.793Z,35.77
2022-09-06T15:45:48.670Z,35.90
2022-09-06T15:48:16.004Z,35.53
2022-09-06T15:50:51.172Z,35.96
2022-09-06T15:53:18.740Z,35.45
2022-09-06T15:55:57.465Z,35.01
2022-09-06T15:58:27.386Z,34.34
2022-09-06T16:01:01.013Z,34.57
2022-09-06T16:03:27.688Z,34.46
2022-09-06T16:08:40.912Z,32.80
2022-09-06T16:11:08.753Z,33.30
2022-09-06T16:13:36.196Z,33.28
2022-09-06T16:16:04.006Z,32.85
2022-09-06T16:18:34.210Z,33.60
2022-09-06T16:21:12.089Z,33.88
2022-09-06T16:23:39.285Z,33.99
2022-09-06T16:26:06.391Z,34.37
2022-09-06T16:28:34.254Z,35.79
2022-09-06T16:31:02.417Z,36.27
2022-09-06T16:33:29.225Z,37.82
2022-09-06T16:35:55.834Z,37.95
2022-09-06T16:38:24.305Z,38.97
2022-09-06T16:40:50.981Z,39.82
2022-09-06T16:43:17.627Z,40.88
2022-09-06T16:45:54.708Z,41.84
2022-09-06T16:48:21.254Z,43.21
2022-09-06T16:50:48.070Z,44.19
2022-09-06T16:53:15.362Z,45.30
2022-09-06T16:55:44.134Z,47.51
2022-09-06T16:58:10.854Z,48.47
2022-09-06T17:00:41.248Z,49.64
2022-09-06T17:03:08.134Z,50.81
2022-09-06T17:05:35.382Z,52.96
2022-09-06T17:08:01.934Z,53.92
2022-09-06T17:10:28.483Z,54.15
2022-09-06T17:12:55.004Z,54.80
2022-09-06T17:15:21.532Z,55.96
2022-09-06T17:17:48.046Z,56.35
2022-09-06T17:20:18.268Z,57.49
2022-09-06T17:22:49.520Z,59.60
2022-09-06T17:25:16.055Z,60.14
2022-09-06T17:27:42.596Z,62.32
2022-09-06T17:30:09.537Z,62.64
2022-09-06T17:32:36.646Z,64.17
2022-09-06T17:35:04.126Z,63.58
2022-09-06T17:37:32.741Z,64.07
2022-09-06T17:39:59.357Z,65.80
2022-09-06T17:42:25.981Z,66.92
2022-09-06T17:44:52.505Z,67.60
2022-09-06T17:47:19.042Z,68.31
2022-09-06T17:49:45.576Z,69.30
2022-09-06T17:52:12.427Z,70.59
2022-09-06T17:54:39.016Z,71.06
2022-09-06T17:57:05.579Z,70.87
2022-09-06T17:59:35.409Z,71.90
2022-09-06T18:02:02.152Z,72.60
2022-09-06T18:04:28.812Z,74.13
2022-09-06T18:06:55.356Z,76.18
2022-09-06T18:09:21.972Z,76.19
2022-09-06T18:11:48.529Z,76.03
2022-09-06T18:14:16.837Z,76.74
2022-09-06T18:16:45.432Z,77.56
2022-09-06T18:19:12.461Z,77.72
2022-09-06T18:21:40.532Z,79.09
2022-09-06T18:24:08.252Z,80.26
2022-09-06T18:26:34.804Z,82.11
2022-09-06T18:29:01.546Z,80.00
2022-09-06T18:31:28.160Z,79.40
2022-09-06T18:33:58.021Z,78.89
2022-09-06T18:36:27.596Z,78.26
2022-09-06T18:38:57.840Z,77.88
2022-09-06T18:41:42.963Z,78.25
2022-09-06T18:44:09.444Z,78.12
2022-09-06T18:46:38.088Z,79.12
2022-09-06T18:49:05.322Z,79.02
2022-09-06T18:51:32.227Z,79.39
2022-09-06T18:53:59.547Z,79.36
2022-09-06T18:56:26.625Z,79.99
2022-09-06T18:58:58.680Z,80.93
2022-09-06T19:01:26.285Z,81.37
2022-09-06T19:03:52.980Z,81.05
2022-09-06T19:06:20.984Z,81.39
2022-09-06T19:08:48.380Z,81.04
2022-09-06T19:11:17.024Z,81.06
2022-09-06T19:13:44.641Z,80.91
2022-09-06T19:16:12.504Z,80.88
2022-09-06T19:18:39.749Z,80.55
2022-09-06T19:21:13.398Z,80.81
2022-09-06T19:23:41.069Z,80.83
2022-09-06T19:26:09.441Z,80.79
2022-09-06T19:28:36.608Z,80.77
2022-09-06T19:31:08.041Z,81.09
2022-09-06T19:33:36.325Z,80.99
2022-09-06T19:36:11.643Z,81.06
2022-09-06T19:38:59.565Z,81.39
2022-09-06T19:41:26.313Z,81.62
2022-09-06T19:43:53.669Z,81.88
2022-09-06T19:46:21.362Z,82.13
2022-09-06T19:48:49.585Z,81.83
2022-09-06T19:51:17.261Z,81.87
2022-09-06T19:53:47.093Z,82.37
2022-09-06T19:56:15.048Z,82.66
2022-09-06T19:58:42.498Z,83.00
2022-09-06T20:01:10.200Z,83.33
2022-09-06T20:03:38.142Z,83.18
2022-09-06T20:06:07.520Z,83.71
2022-09-06T20:08:34.998Z,83.50
2022-09-06T20:11:02.441Z,83.05
2022-09-06T20:13:29.492Z,83.70
2022-09-06T20:15:56.808Z,84.27
2022-09-06T20:18:23.473Z,84.18
2022-09-06T20:20:53.874Z,84.95
2022-09-06T20:23:20.388Z,85.05
2022-09-06T20:25:47.912Z,84.94
2022-09-06T20:28:17.854Z,85.25
2022-09-06T20:30:44.918Z,85.62
2022-09-06T20:33:11.468Z,85.72
2022-09-06T20:35:38.063Z,86.40
2022-09-06T20:38:04.591Z,86.19
2022-09-06T20:40:31.111Z,87.14
2022-09-06T20:42:57.648Z,86.82
2022-09-06T20:45:25.868Z,87.68
2022-09-06T20:47:52.537Z,87.93
2022-09-06T20:50:19.092Z,87.97
2022-09-06T20:52:45.622Z,88.81
2022-09-06T20:55:12.428Z,88.37
2022-09-06T20:57:38.921Z,88.75
2022-09-06T21:00:05.674Z,88.04
2022-09-06T21:02:32.213Z,89.15
2022-09-06T21:05:00.109Z,88.99
2022-09-06T21:07:27.227Z,89.17
2022-09-06T21:09:53.732Z,89.84
2022-09-06T21:12:20.227Z,89.47
2022-09-06T21:14:46.770Z,90.37
2022-09-06T21:17:13.259Z,90.67
2022-09-06T21:19:40.237Z,89.81
2022-09-06T21:22:06.860Z,90.32
2022-09-06T21:24:33.983Z,89.85
2022-09-06T21:27:00.505Z,90.25
2022-09-06T21:29:27.003Z,90.60
2022-09-06T21:31:53.565Z,90.69
2022-09-06T21:34:20.214Z,90.54
2022-09-06T21:36:46.782Z,90.42
2022-09-06T21:39:13.506Z,90.82
2022-09-06T21:41:40.960Z,90.91
2022-09-06T21:44:07.959Z,91.01
2022-09-06T21:46:36.191Z,91.21
2022-09-06T21:49:07.403Z,91.62
2022-09-06T21:51:34.399Z,91.85
2022-09-06T21:54:05.120Z,91.60
2022-09-06T21:56:34.028Z,91.32
2022-09-06T21:59:00.670Z,91.04
2022-09-06T22:01:28.723Z,91.39
2022-09-06T22:03:55.508Z,91.11
2022-09-06T22:06:24.847Z,91.34
2022-09-06T22:08:51.970Z,91.27
2022-09-06T22:11:20.063Z,91.52
2022-09-06T22:13:47.474Z,91.67
2022-09-06T22:16:15.621Z,91.14
2022-09-06T22:18:42.426Z,91.76
2022-09-06T22:21:10.860Z,92.27
2022-09-06T22:23:37.920Z,92.74
2022-09-06T22:26:05.852Z,92.67
2022-09-06T22:28:32.801Z,92.35
2022-09-06T22:30:59.622Z,91.80
2022-09-06T22:33:26.295Z,91.98
2022-09-06T22:35:52.890Z,92.23
2022-09-06T22:38:19.782Z,92.72
2022-09-06T22:40:46.435Z,92.55
2022-09-06T22:43:15.733Z,92.91
2022-09-06T22:45:47.523Z,92.97
2022-09-06T22:48:17.803Z,93.40
2022-09-06T22:50:44.334Z,92.93
2022-09-06T22:53:11.235Z,93.23
2022-09-06T22:55:37.846Z,93.73
2022-09-06T22:58:05.016Z,94.43
2022-09-06T23:00:31.924Z,94.16
2022-09-06T23:02:58.508Z,94.23
2022-09-06T23:05:25.039Z,94.01
2022-09-06T23:07:51.561Z,94.57
2022-09-06T23:10:18.247Z,94.11
2022-09-06T23:12:44.752Z,94.13
2022-09-06T23:15:12.050Z,94.39
2022-09-06T23:17:38.742Z,94.16
2022-09-06T23:20:05.416Z,94.42
2022-09-06T23:22:31.900Z,95.06
2022-09-06T23:24:58.401Z,94.80
2022-09-06T23:27:24.989Z,95.67
2022-09-06T23:29:51.518Z,95.82
2022-09-06T23:32:18.015Z,96.00
2022-09-06T23:34:44.819Z,96.70
2022-09-06T23:37:11.371Z,96.70
2022-09-06T23:39:37.901Z,97.34
2022-09-06T23:42:04.547Z,97.62
2022-09-06T23:44:31.037Z,97.87
2022-09-06T23:46:57.600Z,98.24
2022-09-06T23:49:24.179Z,98.29
2022-09-06T23:51:50.707Z,98.99
2022-09-06T23:54:17.212Z,99.07
2022-09-06T23:56:43.715Z,99.19
2022-09-06T23:59:10.524Z,99.77
